Time;durP1;ratioP1;P1;durP2;ratioP2;P2;SDS_P1;SDS_P2;PMS_P1;PMS_P2;Temp;Humidity;BMP_temperature;BMP_pressure;BME280_temperature;BME280_humidity;BME280_pressure;Samples;Min_cycle;Max_cycle;Signal;HPM_P1;HPM_P2
2023/12/13 00:00:56;;;;;;;43.40;24.50;;;;;;;3.85;98.65;98814.49;218220;1256;139522;-69
2023/12/13 00:06:11;;;;;;;51.70;27.50;;;;;;;3.89;99.24;98810.73;218315;1257;141376;-68
2023/12/13 00:11:15;;;;;;;43.30;26.80;;;;;;;3.92;98.96;98799.65;219022;1259;139535;-67
2023/12/13 00:16:21;;;;;;;44.00;29.00;;;;;;;3.90;98.62;98796.41;218369;1255;140411;-69
2023/12/13 00:21:26;;;;;;;45.60;26.00;;;;;;;3.89;98.72;98792.58;219230;1256;644888;-68
2023/12/13 00:26:31;;;;;;;40.40;26.00;;;;;;;3.88;98.47;98785.48;220106;1256;140509;-69
2023/12/13 00:31:35;;;;;;;43.30;26.00;;;;;;;3.89;98.37;98785.80;219467;1256;140793;-68
2023/12/13 00:36:41;;;;;;;54.50;30.60;;;;;;;3.90;98.43;98788.06;219105;1256;140487;-68
2023/12/13 00:41:45;;;;;;;59.50;32.10;;;;;;;3.90;98.25;98782.80;219904;1256;139935;-68
2023/12/13 00:46:50;;;;;;;67.70;33.10;;;;;;;3.90;98.24;98779.05;218723;1257;141439;-69
2023/12/13 00:51:54;;;;;;;48.80;30.00;;;;;;;3.92;98.34;98771.66;219016;1257;140496;-69
2023/12/13 00:57:00;;;;;;;54.20;30.20;;;;;;;3.93;98.37;98771.69;218086;1260;152923;-69
2023/12/13 01:02:07;;;;;;;55.20;31.10;;;;;;;3.93;98.45;98769.66;217857;1259;139267;-68
2023/12/13 01:07:12;;;;;;;48.40;30.50;;;;;;;3.89;98.08;98765.80;218988;1256;139493;-69
2023/12/13 01:12:18;;;;;;;52.10;29.60;;;;;;;3.78;97.43;98763.12;218005;1257;140044;-68
2023/12/13 01:17:22;;;;;;;57.70;34.70;;;;;;;3.66;97.53;98757.57;219211;1257;140223;-70
2023/12/13 01:22:27;;;;;;;62.90;32.40;;;;;;;3.60;97.64;98756.20;218258;1257;139837;-68
2023/12/13 01:27:32;;;;;;;45.80;27.80;;;;;;;3.57;97.94;98746.54;218893;1257;139495;-69
2023/12/13 01:32:37;;;;;;;46.00;27.00;;;;;;;3.55;97.79;98744.12;219191;1257;140710;-68
2023/12/13 01:37:42;;;;;;;80.20;40.40;;;;;;;3.50;97.80;98744.87;218006;1257;139773;-66
2023/12/13 01:42:47;;;;;;;100.10;43.20;;;;;;;3.48;97.91;98745.94;218544;1259;141971;-68
2023/12/13 01:47:51;;;;;;;114.60;51.90;;;;;;;3.45;98.10;98740.84;218810;1256;150968;-67
2023/12/13 01:52:56;;;;;;;100.20;44.50;;;;;;;3.46;98.27;98735.90;217809;1257;139794;-68
2023/12/13 01:58:04;;;;;;;124.20;52.00;;;;;;;3.48;98.70;98729.36;217885;1256;139926;-69
2023/12/13 02:03:11;;;;;;;55.20;32.20;;;;;;;3.49;98.60;98726.96;218374;1256;140123;-69
2023/12/13 02:08:16;;;;;;;76.60;37.10;;;;;;;3.51;98.73;98717.79;218349;1256;139905;-69
2023/12/13 02:13:20;;;;;;;56.00;32.40;;;;;;;3.50;98.67;98709.41;217921;1259;139637;-68
2023/12/13 02:18:27;;;;;;;58.50;30.10;;;;;;;3.48;98.36;98707.80;218784;1255;139632;-67
2023/12/13 02:23:32;;;;;;;77.30;36.20;;;;;;;3.39;97.69;98707.34;219222;1257;139750;-68
2023/12/13 02:28:37;;;;;;;64.60;30.60;;;;;;;3.24;97.12;98696.05;220618;1256;140324;-69
2023/12/13 02:33:43;;;;;;;48.70;30.50;;;;;;;3.11;96.73;98689.98;220368;1256;139869;-68
2023/12/13 02:38:48;;;;;;;40.40;26.60;;;;;;;3.01;96.76;98683.20;219720;1256;139810;-69
2023/12/13 02:43:53;;;;;;;38.40;25.70;;;;;;;2.98;96.87;98676.34;219016;1260;141722;-68
2023/12/13 02:48:58;;;;;;;38.00;24.30;;;;;;;2.85;95.95;98667.68;219265;1256;139910;-68
2023/12/13 02:54:04;;;;;;;38.00;24.90;;;;;;;2.69;95.69;98664.30;217566;1257;139628;-67
2023/12/13 02:59:09;;;;;;;38.30;22.90;;;;;;;2.58;95.93;98661.27;218352;1256;140642;-67
2023/12/13 03:04:14;;;;;;;37.70;22.90;;;;;;;2.46;95.52;98670.31;217896;1257;139980;-67
2023/12/13 03:09:19;;;;;;;47.90;25.00;;;;;;;2.34;95.82;98679.34;217635;1260;139929;-68
2023/12/13 03:14:25;;;;;;;42.70;22.60;;;;;;;2.27;95.96;98681.98;218284;1256;140332;-67
2023/12/13 03:19:30;;;;;;;46.80;26.50;;;;;;;2.16;95.53;98681.41;218313;1260;139650;-67
2023/12/13 03:24:36;;;;;;;43.50;27.40;;;;;;;2.11;96.46;98674.27;218665;1259;139744;-67
2023/12/13 03:29:40;;;;;;;36.80;23.20;;;;;;;2.12;96.91;98689.15;218295;1259;140121;-67
2023/12/13 03:34:45;;;;;;;53.90;26.90;;;;;;;2.10;97.07;98676.83;217768;1257;140085;-68
2023/12/13 03:39:50;;;;;;;50.40;28.90;;;;;;;2.12;97.91;98685.99;218242;1259;139342;-68
2023/12/13 03:44:56;;;;;;;55.30;30.70;;;;;;;2.17;98.05;98682.41;217905;1257;140001;-67
2023/12/13 03:50:00;;;;;;;58.60;31.90;;;;;;;2.20;98.31;98679.81;218145;1256;139864;-68
2023/12/13 03:55:06;;;;;;;64.50;37.50;;;;;;;2.28;98.95;98679.84;218252;1256;143732;-67
2023/12/13 04:00:12;;;;;;;51.50;30.20;;;;;;;2.38;99.03;98683.54;219029;1257;140055;-67
2023/12/13 04:05:16;;;;;;;60.60;33.10;;;;;;;2.41;98.64;98674.17;218864;1257;140246;-67
2023/12/13 04:10:21;;;;;;;71.10;37.80;;;;;;;2.42;98.73;98662.27;218791;1259;140800;-68
2023/12/13 04:15:25;;;;;;;64.90;37.80;;;;;;;2.49;99.01;98668.83;218394;1256;140534;-68
2023/12/13 04:20:30;;;;;;;67.20;34.80;;;;;;;2.58;99.26;98663.98;219612;1256;140070;-68
2023/12/13 04:25:35;;;;;;;65.90;36.10;;;;;;;2.65;99.17;98654.56;218405;1259;141070;-66
2023/12/13 04:30:39;;;;;;;60.10;34.60;;;;;;;2.68;99.06;98652.56;220561;1259;139772;-69
2023/12/13 04:35:43;;;;;;;65.40;37.50;;;;;;;2.72;99.03;98647.90;220500;1257;140378;-68
2023/12/13 04:40:48;;;;;;;72.80;37.90;;;;;;;2.78;98.86;98640.31;219608;1257;140410;-70
2023/12/13 04:45:52;;;;;;;71.30;39.30;;;;;;;2.81;98.84;98636.33;219482;1257;140449;-69
2023/12/13 04:50:57;;;;;;;68.40;40.20;;;;;;;2.86;98.89;98631.13;219746;1256;139529;-69
2023/12/13 04:56:01;;;;;;;95.90;43.40;;;;;;;2.90;99.02;98620.58;219294;1260;139766;-70
2023/12/13 05:01:06;;;;;;;104.40;43.30;;;;;;;2.95;99.31;98610.58;218904;1256;140675;-68
2023/12/13 05:06:11;;;;;;;73.80;37.30;;;;;;;2.99;99.37;98610.15;218251;1260;140854;-68
2023/12/13 05:11:19;;;;;;;75.90;40.40;;;;;;;3.03;99.47;98609.13;217706;1260;139512;-68
2023/12/13 05:16:24;;;;;;;;;;;;;;;3.04;99.21;98601.82;218387;1256;141640;-67
2023/12/13 05:21:29;;;;;;;58.60;32.20;;;;;;;3.01;99.39;98604.83;218225;1260;126974;-68
2023/12/13 05:26:35;;;;;;;64.80;34.30;;;;;;;2.95;99.08;98609.36;217647;1260;140088;-68
2023/12/13 05:31:40;;;;;;;63.50;36.30;;;;;;;2.90;99.27;98602.27;218244;1257;139824;-68
2023/12/13 05:36:45;;;;;;;90.90;44.60;;;;;;;2.93;99.65;98591.56;218606;1256;141645;-67
2023/12/13 05:41:50;;;;;;;76.20;37.60;;;;;;;2.95;99.90;98586.16;218198;1256;141129;-68
2023/12/13 05:46:54;;;;;;;58.20;30.40;;;;;;;2.99;99.94;98580.98;218186;1260;140104;-67
2023/12/13 05:51:59;;;;;;;64.40;33.80;;;;;;;3.00;99.70;98583.02;218866;1256;140028;-67
2023/12/13 05:57:04;;;;;;;68.00;35.20;;;;;;;3.01;99.76;98584.05;219008;1257;140575;-67
2023/12/13 06:02:09;;;;;;;65.00;36.60;;;;;;;3.01;99.36;98582.56;219621;1256;139887;-68
2023/12/13 06:07:14;;;;;;;81.90;39.20;;;;;;;3.03;99.65;98584.13;217632;1259;139575;-67
2023/12/13 06:12:19;;;;;;;71.00;38.60;;;;;;;3.08;99.79;98583.86;218607;1257;140398;-68
2023/12/13 06:17:23;;;;;;;69.50;40.60;;;;;;;3.12;99.90;98581.52;218437;1256;140240;-68
2023/12/13 06:22:28;;;;;;;75.60;39.30;;;;;;;3.15;99.86;98574.61;218906;1259;140230;-67
2023/12/13 06:27:32;;;;;;;82.80;37.30;;;;;;;3.18;99.94;98565.23;220464;1257;139883;-67
2023/12/13 06:32:36;;;;;;;66.30;33.40;;;;;;;3.22;99.96;98562.16;220546;1256;139367;-67
2023/12/13 06:37:42;;;;;;;64.50;33.60;;;;;;;3.28;99.80;98558.55;220554;1256;140360;-68
2023/12/13 06:42:48;;;;;;;66.30;33.50;;;;;;;3.32;99.81;98545.11;220133;1257;140370;-67
2023/12/13 06:47:52;;;;;;;66.10;32.60;;;;;;;3.36;99.50;98550.58;219551;1257;139868;-68
2023/12/13 06:52:57;;;;;;;52.90;28.40;;;;;;;3.35;98.99;98551.19;218669;1255;139828;-66
2023/12/13 06:58:01;;;;;;;55.70;31.10;;;;;;;3.31;98.65;98541.69;218068;1257;139635;-68
2023/12/13 07:03:06;;;;;;;60.00;31.80;;;;;;;3.30;99.25;98535.08;217900;1259;139901;-66
2023/12/13 07:08:10;;;;;;;56.90;32.40;;;;;;;3.30;99.37;98534.35;218680;1260;139919;-65
2023/12/13 07:13:14;;;;;;;56.20;33.20;;;;;;;3.27;98.98;98535.75;217748;1256;151274;-67
2023/12/13 07:18:21;;;;;;;61.30;31.10;;;;;;;3.22;99.14;98534.50;218789;1259;140048;-68
2023/12/13 07:23:26;;;;;;;61.30;33.60;;;;;;;3.26;99.50;98532.11;218504;1259;141348;-68
2023/12/13 07:28:31;;;;;;;62.60;36.50;;;;;;;3.31;99.59;98532.80;217978;1258;141020;-67
2023/12/13 07:33:40;;;;;;;59.80;31.90;;;;;;;3.35;99.64;98528.91;217784;1259;139718;-67
2023/12/13 07:38:45;;;;;;;70.20;33.60;;;;;;;3.38;99.64;98528.57;218505;1259;141608;-67
2023/12/13 07:43:50;;;;;;;58.70;31.90;;;;;;;3.42;99.65;98530.41;218638;1259;139872;-67
2023/12/13 07:48:57;;;;;;;56.60;33.20;;;;;;;3.46;99.77;98536.28;218116;1257;141635;-67
2023/12/13 07:54:09;;;;;;;58.90;34.60;;;;;;;3.53;99.79;98534.64;219744;1259;140245;-68
2023/12/13 07:59:13;;;;;;;70.90;38.60;;;;;;;3.61;99.91;98537.69;218491;1260;141701;-70
2023/12/13 08:04:20;;;;;;;86.70;41.10;;;;;;;3.66;99.75;98536.04;217662;1257;139677;-69
2023/12/13 08:09:25;;;;;;;74.90;37.90;;;;;;;3.69;99.72;98532.80;218672;1257;140390;-70
2023/12/13 08:14:31;;;;;;;52.30;30.70;;;;;;;3.71;99.64;98531.02;218563;1260;139758;-69
2023/12/13 08:19:37;;;;;;;61.50;37.30;;;;;;;3.75;99.73;98518.41;218967;1257;140934;-69
2023/12/13 08:24:43;;;;;;;70.00;37.80;;;;;;;3.81;99.72;98520.59;218274;1258;140284;-67
2023/12/13 08:29:47;;;;;;;49.40;29.70;;;;;;;3.85;99.59;98517.13;219012;1258;141188;-69
2023/12/13 08:34:52;;;;;;;50.30;28.90;;;;;;;3.89;99.53;98513.28;219807;1258;139991;-67
2023/12/13 08:39:57;;;;;;;54.00;30.30;;;;;;;3.92;99.45;98516.45;217753;1258;139628;-69
2023/12/13 08:45:01;;;;;;;52.10;28.00;;;;;;;3.96;99.50;98524.14;219470;1257;141562;-68
2023/12/13 08:50:07;;;;;;;47.20;28.30;;;;;;;4.01;99.49;98524.84;217932;1260;139857;-67
2023/12/13 08:55:12;;;;;;;51.50;28.80;;;;;;;4.08;99.44;98519.96;218387;1257;140131;-67
2023/12/13 09:00:16;;;;;;;54.50;30.70;;;;;;;4.15;99.63;98514.08;217897;1256;140327;-66
2023/12/13 09:05:21;;;;;;;56.10;30.30;;;;;;;4.21;99.64;98505.25;219859;1257;141026;-66
2023/12/13 09:10:26;;;;;;;50.00;27.20;;;;;;;4.29;99.69;98512.99;218104;1260;139900;-66
2023/12/13 09:15:34;;;;;;;47.90;26.10;;;;;;;4.39;99.60;98515.58;218570;1259;140440;-66
2023/12/13 09:20:38;;;;;;;47.90;29.00;;;;;;;4.48;99.58;98522.69;218420;1257;140191;-66
2023/12/13 09:25:43;;;;;;;42.30;27.00;;;;;;;4.55;99.43;98521.08;217847;1257;139637;-68
2023/12/13 09:30:48;;;;;;;54.40;30.10;;;;;;;4.61;99.38;98516.02;217879;1257;140636;-68
2023/12/13 09:35:53;;;;;;;59.60;33.40;;;;;;;4.67;99.61;98514.75;218122;1257;141982;-66
2023/12/13 09:40:59;;;;;;;42.20;27.60;;;;;;;4.71;99.30;98510.80;217736;1259;139771;-66
2023/12/13 09:46:05;;;;;;;52.40;26.70;;;;;;;4.76;99.41;98505.48;217871;1258;139878;-69
2023/12/13 09:51:12;;;;;;;48.50;28.60;;;;;;;4.81;99.24;98511.06;218279;1257;140870;-71
2023/12/13 09:56:19;;;;;;;40.20;27.20;;;;;;;4.87;99.08;98505.16;217575;1261;140771;-70
2023/12/13 10:01:24;;;;;;;46.80;28.20;;;;;;;4.92;98.87;98501.03;218409;1257;139997;-68
2023/12/13 10:06:32;;;;;;;42.50;25.00;;;;;;;4.98;98.80;98494.80;218909;1257;140192;-67
2023/12/13 10:11:37;;;;;;;52.30;30.30;;;;;;;5.08;98.65;98485.27;219930;1256;140634;-68
2023/12/13 10:16:42;;;;;;;62.90;29.00;;;;;;;5.19;98.19;98475.84;218309;1260;139865;-67
2023/12/13 10:21:50;;;;;;;81.30;32.80;;;;;;;5.31;98.36;98467.48;219291;1258;139902;-67
2023/12/13 10:26:54;;;;;;;54.00;29.80;;;;;;;5.46;98.39;98460.36;219508;1257;141660;-68
2023/12/13 10:31:59;;;;;;;96.90;48.40;;;;;;;5.58;97.57;98457.79;220113;1257;140556;-67
2023/12/13 10:37:06;;;;;;;55.40;26.20;;;;;;;5.67;97.21;98451.48;218953;1257;140213;-67
2023/12/13 10:42:17;;;;;;;38.80;24.20;;;;;;;5.73;96.95;98444.27;220132;1257;140305;-68
2023/12/13 10:47:26;;;;;;;46.80;24.50;;;;;;;5.75;96.47;98435.20;219517;1257;140509;-67
2023/12/13 10:52:33;;;;;;;41.20;22.80;;;;;;;5.84;96.40;98428.27;219109;1257;140384;-67
2023/12/13 10:57:39;;;;;;;38.90;25.00;;;;;;;5.87;95.59;98419.56;218996;1257;140733;-67
2023/12/13 11:03:00;;;;;;;31.20;22.30;;;;;;;5.84;95.59;98409.86;218228;1257;140047;-66
2023/12/13 11:08:16;;;;;;;47.60;27.10;;;;;;;5.80;95.07;98413.39;219433;1256;141303;-68
2023/12/13 11:13:23;;;;;;;36.50;21.30;;;;;;;5.78;94.82;98412.58;217703;1260;141272;-67
2023/12/13 11:18:30;;;;;;;31.70;19.80;;;;;;;5.82;95.58;98413.20;218727;1257;140481;-68
2023/12/13 11:23:41;;;;;;;26.40;15.70;;;;;;;5.81;94.92;98415.63;217795;1257;140233;-69
2023/12/13 11:28:50;;;;;;;28.10;18.60;;;;;;;5.81;94.85;98411.83;217637;1257;139837;-67
2023/12/13 11:33:56;;;;;;;41.00;23.20;;;;;;;5.83;95.20;98412.96;217883;1257;139947;-66
2023/12/13 11:39:03;;;;;;;41.40;27.70;;;;;;;5.87;95.21;98413.05;217909;1256;139811;-67
2023/12/13 11:44:10;;;;;;;37.80;22.70;;;;;;;5.88;94.87;98410.16;218555;1256;140023;-68
2023/12/13 11:49:14;;;;;;;42.50;23.60;;;;;;;5.87;94.60;98404.59;217896;1256;140357;-68
2023/12/13 11:54:19;;;;;;;45.70;27.20;;;;;;;5.87;94.30;98408.65;218041;1256;140694;-68
2023/12/13 11:59:24;;;;;;;49.10;26.50;;;;;;;5.87;94.49;98401.98;218955;1256;139820;-67
2023/12/13 12:04:29;;;;;;;48.00;30.10;;;;;;;5.88;94.56;98403.43;218422;1256;139727;-67
2023/12/13 12:09:35;;;;;;;51.40;27.00;;;;;;;5.84;94.15;98400.70;218901;1256;140004;-67
2023/12/13 12:14:44;;;;;;;54.00;30.20;;;;;;;5.81;94.47;98402.62;219627;1256;141256;-66
2023/12/13 12:19:49;;;;;;;58.60;30.90;;;;;;;5.74;93.91;98403.71;217553;1257;855980;-67
2023/12/13 12:24:54;;;;;;;48.50;27.70;;;;;;;5.69;93.62;98406.69;219414;1257;140930;-68
2023/12/13 12:29:58;;;;;;;58.30;33.00;;;;;;;5.62;94.30;98408.70;220635;1256;141338;-67
2023/12/13 12:35:02;;;;;;;52.90;32.60;;;;;;;5.54;93.37;98413.20;220349;1256;140142;-67
2023/12/13 12:40:08;;;;;;;55.00;29.10;;;;;;;5.43;93.51;98416.13;220132;1257;140900;-67
2023/12/13 12:45:12;;;;;;;69.50;38.00;;;;;;;5.33;93.31;98416.16;218768;1256;140829;-67
2023/12/13 12:50:17;;;;;;;60.40;32.00;;;;;;;5.23;93.53;98417.77;218230;1256;139548;-65
2023/12/13 12:55:22;;;;;;;77.50;36.50;;;;;;;5.14;93.82;98420.06;218616;1255;141079;-66
2023/12/13 13:00:26;;;;;;;63.20;32.80;;;;;;;5.07;93.75;98415.46;219757;1256;139785;-67
2023/12/13 13:05:31;;;;;;;63.00;34.80;;;;;;;5.00;93.67;98417.85;218429;1256;139384;-69
2023/12/13 13:10:35;;;;;;;69.30;36.50;;;;;;;4.96;94.24;98412.05;217886;1260;139709;-71
2023/12/13 13:15:40;;;;;;;49.30;31.70;;;;;;;4.92;94.20;98405.29;217676;1257;140685;-70
2023/12/13 13:20:46;;;;;;;58.70;32.70;;;;;;;4.81;93.88;98404.60;218609;1256;140637;-71
2023/12/13 13:25:57;;;;;;;58.70;32.10;;;;;;;4.72;93.97;98407.27;218266;1257;139962;-69
2023/12/13 13:31:07;;;;;;;54.80;30.70;;;;;;;4.64;93.84;98405.56;217667;1258;140040;-69
2023/12/13 13:36:13;;;;;;;50.40;31.30;;;;;;;4.58;93.89;98404.54;217873;1257;140970;-68
2023/12/13 13:41:18;;;;;;;57.60;34.00;;;;;;;4.54;94.09;98409.45;218200;1255;139694;-68
2023/12/13 13:46:24;;;;;;;62.70;31.70;;;;;;;4.49;94.02;98407.95;217937;1257;139556;-69
2023/12/13 13:51:29;;;;;;;51.50;31.60;;;;;;;4.40;93.97;98401.27;218953;1256;140106;-69
2023/12/13 13:56:34;;;;;;;54.70;30.60;;;;;;;4.33;94.00;98396.86;218115;1259;140246;-67
2023/12/13 14:01:41;;;;;;;51.40;30.70;;;;;;;4.27;94.08;98395.83;217977;1255;139850;-67
2023/12/13 14:06:46;;;;;;;54.80;28.80;;;;;;;4.18;94.08;98400.88;218645;1257;140425;-69
2023/12/13 14:11:52;;;;;;;56.70;29.30;;;;;;;4.05;93.93;98403.53;219956;1256;140713;-68
2023/12/13 14:17:02;;;;;;;42.20;26.20;;;;;;;3.96;93.98;98407.77;219504;1257;139817;-68
2023/12/13 14:22:07;;;;;;;47.60;28.80;;;;;;;3.94;94.16;98411.66;220654;1255;140446;-68
2023/12/13 14:27:14;;;;;;;55.80;30.50;;;;;;;3.93;94.28;98408.63;218873;1257;139663;-67
2023/12/13 14:32:19;;;;;;;48.60;28.90;;;;;;;3.92;94.13;98411.40;220289;1256;140098;-68
2023/12/13 14:37:23;;;;;;;56.30;29.50;;;;;;;3.88;94.14;98422.23;220103;1256;141530;-69
2023/12/13 14:42:29;;;;;;;41.70;23.30;;;;;;;3.82;93.81;98424.67;217873;1256;139854;-68
2023/12/13 14:47:34;;;;;;;52.90;29.00;;;;;;;3.75;93.84;98426.02;218567;1256;141045;-68
2023/12/13 14:52:42;;;;;;;46.60;26.50;;;;;;;3.68;94.13;98433.10;218151;1257;139985;-68
2023/12/13 14:57:47;;;;;;;38.80;20.50;;;;;;;3.61;93.83;98435.66;218038;1260;140358;-66
2023/12/13 15:02:52;;;;;;;97.30;45.80;;;;;;;3.52;94.00;98437.66;217833;1256;139969;-66
2023/12/13 15:07:57;;;;;;;66.70;37.00;;;;;;;3.45;94.06;98438.25;218369;1256;139622;-67
2023/12/13 15:13:01;;;;;;;60.20;31.50;;;;;;;3.45;94.50;98439.55;218237;1256;140005;-66
2023/12/13 15:18:11;;;;;;;48.00;24.20;;;;;;;3.45;94.44;98437.40;218644;1255;140146;-66
2023/12/13 15:23:20;;;;;;;43.10;27.80;;;;;;;3.40;94.56;98441.95;218175;1255;140166;-67
2023/12/13 15:28:26;;;;;;;35.30;20.10;;;;;;;3.35;94.44;98445.47;217562;1256;139609;-68
2023/12/13 15:33:31;;;;;;;45.70;23.90;;;;;;;3.29;94.25;98449.67;218381;1256;139727;-68
2023/12/13 15:38:37;;;;;;;44.20;24.10;;;;;;;3.20;94.33;98444.21;217955;1257;140186;-68
2023/12/13 15:43:42;;;;;;;46.30;23.30;;;;;;;3.15;94.52;98443.65;217933;1256;141014;-67
2023/12/13 15:48:50;;;;;;;43.90;24.70;;;;;;;3.12;94.63;98454.65;218578;1256;140694;-70
2023/12/13 15:53:54;;;;;;;40.40;20.50;;;;;;;3.08;94.66;98459.02;217705;1257;144296;-67
2023/12/13 15:58:59;;;;;;;51.60;27.80;;;;;;;3.07;94.83;98472.41;220059;1256;139892;-69
2023/12/13 16:04:04;;;;;;;55.60;28.00;;;;;;;3.06;94.80;98468.61;220466;1255;140953;-69
2023/12/13 16:09:09;;;;;;;45.70;25.60;;;;;;;3.05;94.67;98468.27;219582;1256;140613;-69
2023/12/13 16:14:15;;;;;;;57.80;28.00;;;;;;;3.02;94.74;98465.77;218848;1256;140547;-72
2023/12/13 16:19:23;;;;;;;48.40;21.80;;;;;;;3.04;94.81;98477.36;218730;1256;141563;-69
2023/12/13 16:24:29;;;;;;;36.50;21.80;;;;;;;3.04;95.06;98483.10;218971;1256;140199;-69
2023/12/13 16:29:35;;;;;;;40.10;21.30;;;;;;;3.07;95.09;98484.52;220357;1256;140599;-65
2023/12/13 16:34:40;;;;;;;44.50;22.20;;;;;;;3.10;95.12;98490.36;218976;1256;140882;-67
2023/12/13 16:39:45;;;;;;;46.70;22.30;;;;;;;3.10;94.93;98491.36;219250;1256;141076;-68
2023/12/13 16:44:49;;;;;;;45.00;25.00;;;;;;;3.14;95.16;98490.20;218475;1256;140320;-67
2023/12/13 16:49:54;;;;;;;45.00;22.50;;;;;;;3.12;94.93;98490.95;218782;1256;140501;-69
2023/12/13 16:54:59;;;;;;;60.00;24.40;;;;;;;3.11;95.04;98498.08;217942;1257;141218;-67
2023/12/13 17:00:04;;;;;;;43.70;22.00;;;;;;;3.11;95.13;98505.38;217642;1259;139801;-68
2023/12/13 17:05:09;;;;;;;38.30;23.70;;;;;;;3.07;95.14;98508.29;219012;1259;139558;-66
2023/12/13 17:10:13;;;;;;;42.30;21.00;;;;;;;3.05;95.31;98511.98;218992;1257;139831;-68
2023/12/13 17:15:19;;;;;;;53.80;28.40;;;;;;;3.05;95.40;98516.55;217445;1256;140187;-67
2023/12/13 17:20:24;;;;;;;60.30;29.40;;;;;;;3.06;95.48;98515.73;218318;1256;139738;-67
2023/12/13 17:25:29;;;;;;;59.30;28.00;;;;;;;3.07;95.47;98519.86;218419;1255;139773;-67
2023/12/13 17:30:34;;;;;;;49.70;25.90;;;;;;;3.07;95.50;98514.27;218756;1254;140215;-66
2023/12/13 17:35:43;;;;;;;49.80;24.90;;;;;;;3.06;95.67;98509.94;218541;1256;139496;-66
2023/12/13 17:40:47;;;;;;;49.60;27.40;;;;;;;3.03;95.70;98511.50;218348;1257;139440;-66
2023/12/13 17:45:53;;;;;;;172.80;53.60;;;;;;;3.00;95.50;98510.10;218348;1257;139803;-67
2023/12/13 17:50:57;;;;;;;179.10;57.60;;;;;;;2.98;95.61;98515.35;218590;1256;141292;-67
2023/12/13 17:56:02;;;;;;;60.30;32.10;;;;;;;2.97;95.71;98521.71;218352;1257;140951;-68
2023/12/13 18:01:07;;;;;;;51.00;27.20;;;;;;;2.94;95.81;98520.27;219133;1257;140530;-65
2023/12/13 18:06:13;;;;;;;48.70;23.60;;;;;;;2.93;95.74;98518.91;218348;1259;140452;-66
2023/12/13 18:11:17;;;;;;;50.30;24.20;;;;;;;2.95;96.03;98522.38;220395;1256;139884;-63
2023/12/13 18:16:24;;;;;;;65.40;25.50;;;;;;;2.96;96.28;98530.06;218474;1256;140617;-65
2023/12/13 18:21:28;;;;;;;66.80;33.60;;;;;;;2.97;96.10;98532.52;218748;1256;139814;-65
2023/12/13 18:26:33;;;;;;;67.10;33.20;;;;;;;2.98;96.14;98533.17;219308;1254;139767;-65
2023/12/13 18:31:38;;;;;;;54.20;25.90;;;;;;;3.00;96.40;98533.92;218632;1256;140317;-66
2023/12/13 18:36:42;;;;;;;47.00;24.30;;;;;;;3.01;96.44;98528.70;218518;1256;141993;-65
2023/12/13 18:41:47;;;;;;;50.50;26.10;;;;;;;3.01;96.44;98526.66;219130;1256;140254;-64
2023/12/13 18:46:54;;;;;;;52.10;25.90;;;;;;;3.01;96.44;98530.23;218658;1257;139705;-64
2023/12/13 18:52:00;;;;;;;46.30;24.30;;;;;;;3.01;96.45;98531.96;218782;1259;139971;-65
2023/12/13 18:57:04;;;;;;;55.40;29.80;;;;;;;3.00;96.64;98536.42;218107;1258;141576;-64
2023/12/13 19:02:09;;;;;;;45.60;26.20;;;;;;;3.01;96.74;98536.23;218620;1256;141289;-63
2023/12/13 19:07:14;;;;;;;49.70;23.80;;;;;;;3.00;96.58;98532.66;217774;1255;139855;-63
2023/12/13 19:12:19;;;;;;;46.00;23.10;;;;;;;2.98;96.58;98528.02;218331;1256;139914;-63
2023/12/13 19:17:27;;;;;;;43.30;24.90;;;;;;;2.95;96.81;98523.63;218149;1259;140414;-64
2023/12/13 19:22:31;;;;;;;43.40;22.50;;;;;;;2.95;96.87;98529.55;217920;1257;140672;-62
2023/12/13 19:27:36;;;;;;;49.00;28.20;;;;;;;2.95;97.12;98536.95;218324;1257;140350;-63
2023/12/13 19:32:39;;;;;;;49.10;24.40;;;;;;;2.96;97.01;98538.45;219101;1259;141483;-65
2023/12/13 19:37:43;;;;;;;47.70;23.40;;;;;;;2.97;97.00;98540.14;218298;1254;143769;-64
2023/12/13 19:42:48;;;;;;;53.60;25.40;;;;;;;2.97;97.01;98533.21;218673;1256;141001;-67
2023/12/13 19:47:54;;;;;;;47.50;25.40;;;;;;;2.97;96.98;98531.55;218161;1256;139903;-66
2023/12/13 19:52:59;;;;;;;51.60;25.20;;;;;;;2.95;97.14;98531.25;218438;1256;140697;-66
2023/12/13 19:58:04;;;;;;;52.00;26.10;;;;;;;2.94;97.14;98533.44;220351;1259;139826;-65
2023/12/13 20:03:11;;;;;;;50.30;23.80;;;;;;;2.93;97.00;98534.98;219327;1256;141578;-68
2023/12/13 20:08:18;;;;;;;44.10;24.00;;;;;;;2.90;97.03;98533.31;220302;1255;140783;-66
2023/12/13 20:13:29;;;;;;;49.00;25.40;;;;;;;2.91;97.07;98540.22;219517;1256;141596;-68
2023/12/13 20:18:45;;;;;;;61.10;27.30;;;;;;;2.89;96.98;98547.20;218182;1256;142080;-67
2023/12/13 20:23:51;;;;;;;;;;;;;;;2.88;97.12;98555.05;218730;1257;140617;-66
2023/12/13 20:29:04;;;;;;;61.60;27.00;;;;;;;2.86;97.50;98558.73;218057;1256;125733;-64
2023/12/13 20:34:09;;;;;;;57.70;28.90;;;;;;;2.87;97.59;98558.72;218320;1259;142513;-67
2023/12/13 20:39:15;;;;;;;61.30;26.30;;;;;;;2.91;97.83;98566.55;218918;1256;139992;-64
2023/12/13 20:44:25;;;;;;;60.20;28.90;;;;;;;2.93;97.88;98570.14;219876;1256;140876;-65
2023/12/13 20:49:38;;;;;;;64.90;30.20;;;;;;;2.94;97.70;98569.76;218724;1255;140134;-64
2023/12/13 20:54:51;;;;;;;68.30;32.20;;;;;;;2.95;97.79;98570.33;218790;1255;141932;-64
2023/12/13 21:00:05;;;;;;;54.30;25.90;;;;;;;2.95;97.88;98572.30;217941;1256;140070;-66
2023/12/13 21:05:17;;;;;;;72.80;30.40;;;;;;;2.92;97.69;98572.58;218894;1257;142331;-66
2023/12/13 21:10:29;;;;;;;79.20;32.60;;;;;;;2.89;98.01;98576.84;218133;1256;140243;-67
2023/12/13 21:15:35;;;;;;;73.70;31.30;;;;;;;2.89;98.12;98580.85;218657;1256;139888;-65
2023/12/13 21:20:40;;;;;;;64.50;31.40;;;;;;;2.88;98.19;98587.02;218299;1257;139970;-63
2023/12/13 21:25:47;;;;;;;63.00;30.40;;;;;;;2.88;98.16;98591.95;217745;1257;140488;-64
2023/12/13 21:30:56;;;;;;;79.80;35.90;;;;;;;2.86;98.24;98597.15;218330;1257;140151;-64
2023/12/13 21:36:01;;;;;;;68.60;32.30;;;;;;;2.84;98.29;98607.04;219064;1255;140650;-64
2023/12/13 21:41:19;;;;;;;68.30;30.90;;;;;;;2.83;98.23;98608.98;218397;1257;140184;-66
2023/12/13 21:46:29;;;;;;;78.80;34.80;;;;;;;2.82;98.40;98612.19;218543;1257;140919;-65
2023/12/13 21:51:32;;;;;;;64.60;28.30;;;;;;;2.83;98.57;98622.43;218805;1259;140356;-66
2023/12/13 21:56:36;;;;;;;79.90;32.60;;;;;;;2.84;98.44;98632.95;220227;1256;141684;-66
2023/12/13 22:01:41;;;;;;;61.10;27.60;;;;;;;2.86;98.44;98638.36;219306;1256;140458;-64
2023/12/13 22:06:45;;;;;;;59.50;30.80;;;;;;;2.88;98.64;98642.56;219734;1256;139504;-65
2023/12/13 22:11:50;;;;;;;63.50;29.20;;;;;;;2.90;98.42;98644.42;219860;1257;139893;-65
2023/12/13 22:16:55;;;;;;;70.90;33.00;;;;;;;2.89;98.42;98649.89;218970;1259;139880;-64
2023/12/13 22:21:59;;;;;;;56.10;28.90;;;;;;;2.87;98.39;98653.58;218753;1257;146705;-64
2023/12/13 22:27:05;;;;;;;53.60;26.00;;;;;;;2.90;98.48;98656.37;217926;1257;139518;-64
2023/12/13 22:32:10;;;;;;;70.60;28.80;;;;;;;2.89;98.48;98658.64;217945;1261;140196;-64
2023/12/13 22:37:18;;;;;;;61.50;27.60;;;;;;;2.87;98.46;98667.31;219078;1257;141408;-64
2023/12/13 22:42:24;;;;;;;58.30;26.60;;;;;;;2.87;98.65;98670.71;218569;1256;139887;-64
2023/12/13 22:47:30;;;;;;;60.50;28.00;;;;;;;2.87;98.65;98669.75;218680;1259;140147;-65
2023/12/13 22:52:39;;;;;;;61.20;28.20;;;;;;;2.90;98.60;98675.04;217632;1257;140396;-64
2023/12/13 22:57:45;;;;;;;51.80;24.60;;;;;;;2.90;98.73;98679.29;218275;1256;141071;-65
2023/12/13 23:02:50;;;;;;;53.30;28.00;;;;;;;2.89;98.61;98674.35;218966;1261;139661;-64
2023/12/13 23:07:55;;;;;;;53.50;26.10;;;;;;;2.90;98.66;98673.17;218628;1257;139969;-64